createdAt,value
2022-09-15T00:00:16.511Z,15.85
2022-09-15T00:02:41.482Z,15.38
2022-09-15T00:05:06.290Z,13.98
2022-09-15T00:07:29.842Z,15.30
2022-09-15T00:09:53.310Z,14.38
2022-09-15T00:12:17.074Z,15.43
2022-09-15T00:14:40.485Z,15.55
2022-09-15T00:17:04.414Z,16.08
2022-09-15T00:19:29.799Z,14.48
2022-09-15T00:21:53.720Z,15.45
2022-09-15T00:24:17.208Z,14.85
2022-09-15T00:26:40.792Z,14.68
2022-09-15T00:29:06.303Z,15.05
2022-09-15T00:31:31.780Z,15.95
2022-09-15T00:34:02.488Z,15.07
2022-09-15T00:36:28.229Z,15.13
2022-09-15T00:38:52.409Z,14.50
2022-09-15T00:41:20.861Z,13.93
2022-09-15T00:43:51.599Z,15.43
2022-09-15T00:46:17.531Z,16.10
2022-09-15T00:48:45.638Z,15.52
2022-09-15T00:51:11.668Z,14.93
2022-09-15T00:53:37.240Z,15.15
2022-09-15T00:56:02.969Z,14.25
2022-09-15T00:58:30.237Z,14.10
2022-09-15T01:00:58.066Z,15.40
2022-09-15T01:03:21.286Z,15.40
2022-09-15T01:05:49.716Z,14.45
2022-09-15T01:08:18.835Z,13.98
2022-09-15T01:10:44.839Z,15.00
2022-09-15T01:13:10.593Z,13.82
2022-09-15T01:15:43.220Z,14.30
2022-09-15T01:18:16.369Z,14.38
2022-09-15T01:20:58.336Z,14.73
2022-09-15T01:24:23.021Z,14.52
2022-09-15T01:27:24.397Z,13.15
2022-09-15T01:30:15.959Z,14.20
2022-09-15T01:33:05.282Z,13.45
2022-09-15T01:35:43.841Z,12.23
2022-09-15T01:38:14.986Z,13.20
2022-09-15T01:40:44.256Z,14.10
2022-09-15T01:43:10.518Z,13.25
2022-09-15T01:45:36.912Z,13.68
2022-09-15T01:48:05.984Z,12.85
2022-09-15T01:50:34.234Z,13.50
2022-09-15T01:53:02.574Z,12.45
2022-09-15T01:55:41.401Z,13.43
2022-09-15T01:58:04.690Z,14.00
2022-09-15T02:00:27.866Z,13.57
2022-09-15T02:02:58.295Z,14.77
2022-09-15T02:05:30.279Z,14.75
2022-09-15T02:08:01.897Z,14.63
2022-09-15T02:10:35.115Z,15.52
2022-09-15T02:13:16.923Z,14.13
2022-09-15T02:15:46.973Z,15.55
2022-09-15T02:18:15.185Z,16.13
2022-09-15T02:20:49.209Z,15.38
2022-09-15T02:23:19.688Z,15.13
2022-09-15T02:25:47.094Z,15.38
2022-09-15T02:28:12.968Z,16.30
2022-09-15T02:30:40.467Z,16.67
2022-09-15T02:33:08.293Z,16.70
2022-09-15T02:35:36.002Z,16.35
2022-09-15T02:38:00.739Z,17.10
2022-09-15T02:40:24.462Z,15.93
2022-09-15T02:42:55.791Z,17.65
2022-09-15T02:45:20.098Z,18.25
2022-09-15T02:47:43.409Z,17.55
2022-09-15T02:50:08.390Z,17.27
2022-09-15T02:52:32.966Z,16.08
2022-09-15T02:54:56.226Z,16.27
2022-09-15T02:57:19.817Z,16.40
2022-09-15T03:00:12.052Z,17.38
2022-09-15T03:02:35.370Z,16.92
2022-09-15T03:04:58.612Z,18.75
2022-09-15T03:07:21.959Z,19.92
2022-09-15T03:09:47.247Z,18.10
2022-09-15T03:12:10.529Z,19.08
2022-09-15T03:14:34.128Z,18.30
2022-09-15T03:16:58.349Z,20.15
2022-09-15T03:19:21.717Z,18.60
2022-09-15T03:21:44.866Z,18.27
2022-09-15T03:24:08.465Z,18.92
2022-09-15T03:26:33.377Z,19.20
2022-09-15T03:28:56.561Z,18.17
2022-09-15T03:31:20.431Z,18.35
2022-09-15T03:33:43.671Z,18.73
2022-09-15T03:36:08.042Z,17.85
2022-09-15T03:38:31.497Z,18.98
2022-09-15T03:41:00.420Z,18.13
2022-09-15T03:43:25.122Z,17.20
2022-09-15T03:45:48.347Z,17.83
2022-09-15T03:48:11.577Z,16.85
2022-09-15T03:50:36.393Z,17.55
2022-09-15T03:53:01.257Z,16.95
2022-09-15T03:55:24.446Z,17.20
2022-09-15T03:57:47.650Z,17.38
2022-09-15T04:00:14.512Z,15.50
2022-09-15T04:02:37.807Z,16.85
2022-09-15T04:05:01.032Z,16.55
2022-09-15T04:07:24.347Z,16.73
2022-09-15T04:09:47.534Z,16.55
2022-09-15T04:12:11.959Z,16.83
2022-09-15T04:14:35.222Z,16.73
2022-09-15T04:17:00.148Z,16.70
2022-09-15T04:19:23.322Z,16.83
2022-09-15T04:21:47.450Z,15.60
2022-09-15T04:24:10.613Z,16.77
2022-09-15T04:26:36.206Z,16.50
2022-09-15T04:29:03.964Z,16.25
2022-09-15T04:31:28.035Z,16.15
2022-09-15T04:33:54.866Z,15.23
2022-09-15T04:36:21.057Z,16.00
2022-09-15T04:38:44.863Z,15.55
2022-09-15T04:41:08.660Z,15.68
2022-09-15T04:43:32.726Z,16.23
2022-09-15T04:45:56.474Z,15.63
2022-09-15T04:48:19.763Z,15.27
2022-09-15T04:50:44.618Z,15.48
2022-09-15T04:53:07.931Z,15.55
2022-09-15T04:55:33.464Z,15.35
2022-09-15T04:57:56.641Z,16.20
2022-09-15T05:00:20.081Z,15.70
2022-09-15T05:02:43.637Z,15.80
2022-09-15T05:05:07.894Z,17.77
2022-09-15T05:07:32.486Z,15.00
2022-09-15T05:09:56.663Z,17.05
2022-09-15T05:12:19.846Z,16.38
2022-09-15T05:14:43.007Z,18.40
2022-09-15T05:17:06.330Z,16.42
2022-09-15T05:19:29.524Z,15.98
2022-09-15T05:21:52.789Z,15.40
2022-09-15T05:24:17.358Z,15.05
2022-09-15T05:26:41.634Z,15.57
2022-09-15T05:29:04.977Z,15.07
2022-09-15T05:31:31.739Z,15.93
2022-09-15T05:33:55.686Z,15.25
2022-09-15T05:36:21.191Z,15.23
2022-09-15T05:38:45.493Z,15.77
2022-09-15T05:41:13.878Z,15.10
2022-09-15T05:43:39.719Z,15.65
2022-09-15T05:46:03.527Z,15.73
2022-09-15T05:48:30.853Z,16.00
2022-09-15T05:50:56.269Z,17.50
2022-09-15T05:53:19.843Z,16.85
2022-09-15T05:55:44.874Z,16.45
2022-09-15T06:10:54.978Z,22.77
2022-09-15T06:13:19.361Z,21.50
2022-09-15T06:15:43.309Z,21.40
2022-09-15T06:18:07.226Z,20.20
2022-09-15T06:20:30.949Z,20.98
2022-09-15T06:22:56.139Z,21.02
2022-09-15T06:25:19.662Z,19.35
2022-09-15T06:27:44.551Z,19.65
2022-09-15T06:30:09.860Z,17.15
2022-09-15T06:32:33.630Z,18.65
2022-09-15T06:34:57.184Z,19.15
2022-09-15T06:37:20.665Z,18.75
2022-09-15T06:39:44.636Z,16.92
2022-09-15T06:42:09.528Z,19.75
2022-09-15T06:44:39.632Z,19.15
2022-09-15T06:47:03.698Z,19.45
2022-09-15T06:49:27.191Z,17.05
2022-09-15T06:51:50.726Z,19.17
2022-09-15T06:54:16.056Z,18.15
2022-09-15T06:56:40.235Z,18.42
2022-09-15T06:59:04.155Z,20.23
2022-09-15T07:01:31.563Z,19.15
2022-09-15T07:03:55.827Z,19.20
2022-09-15T07:06:19.627Z,18.73
2022-09-15T07:08:43.498Z,19.20
2022-09-15T07:11:07.582Z,19.27
2022-09-15T07:13:31.217Z,18.45
2022-09-15T07:15:57.462Z,18.88
2022-09-15T07:18:22.798Z,18.13
2022-09-15T07:20:46.294Z,18.70
2022-09-15T07:23:09.851Z,16.70
2022-09-15T07:25:33.298Z,17.65
2022-09-15T07:27:56.745Z,17.23
2022-09-15T07:30:20.209Z,17.77
2022-09-15T07:32:43.695Z,19.95
2022-09-15T07:35:09.892Z,17.88
2022-09-15T07:37:33.544Z,19.23
2022-09-15T07:39:57.108Z,18.52
2022-09-15T07:42:20.585Z,18.00
2022-09-15T07:44:44.053Z,17.00
2022-09-15T07:47:07.743Z,16.55
2022-09-15T07:49:31.511Z,15.55
2022-09-15T07:51:56.408Z,16.70
2022-09-15T07:54:22.914Z,16.42
2022-09-15T07:56:48.642Z,16.38
2022-09-15T07:59:12.436Z,16.02
2022-09-15T08:01:35.939Z,15.60
2022-09-15T08:03:59.484Z,15.27
2022-09-15T08:06:25.502Z,15.43
2022-09-15T08:08:55.054Z,15.60
2022-09-15T08:11:21.817Z,14.10
2022-09-15T08:13:45.418Z,13.35
2022-09-15T08:16:11.375Z,14.45
2022-09-15T08:18:35.266Z,12.68
2022-09-15T08:20:58.918Z,12.23
2022-09-15T08:23:23.175Z,12.25
2022-09-15T08:25:48.323Z,13.43
2022-09-15T08:28:11.959Z,12.43
2022-09-15T08:30:35.536Z,11.43
2022-09-15T08:32:59.007Z,10.63
2022-09-15T08:35:22.645Z,11.38
2022-09-15T08:37:46.513Z,11.55
2022-09-15T08:40:17.642Z,11.82
2022-09-15T08:42:45.141Z,11.50
2022-09-15T08:45:20.348Z,11.43
2022-09-15T08:47:49.363Z,9.85
2022-09-15T08:50:22.961Z,9.43
2022-09-15T08:52:53.062Z,8.50
2022-09-15T08:55:34.535Z,8.55
2022-09-15T08:57:59.584Z,6.38
2022-09-15T09:00:23.081Z,6.32
2022-09-15T09:03:21.479Z,4.90
2022-09-15T09:05:55.413Z,6.30
2022-09-15T09:09:25.626Z,6.68
2022-09-15T09:12:21.050Z,6.63
2022-09-15T09:15:03.963Z,7.00
2022-09-15T09:17:45.269Z,5.15
2022-09-15T09:20:33.436Z,5.03
2022-09-15T09:22:59.344Z,4.88
2022-09-15T09:25:28.581Z,5.93
2022-09-15T09:27:52.653Z,6.28
2022-09-15T09:30:20.405Z,5.63
2022-09-15T09:32:48.126Z,4.25
2022-09-15T09:35:26.856Z,4.30
2022-09-15T09:37:52.674Z,3.72
2022-09-15T09:40:17.146Z,3.50
2022-09-15T09:42:41.211Z,3.58
2022-09-15T09:45:07.624Z,3.70
2022-09-15T09:47:37.630Z,4.00
2022-09-15T09:50:02.242Z,3.78
2022-09-15T09:52:36.856Z,3.20
2022-09-15T09:55:02.484Z,3.05
2022-09-15T09:57:31.424Z,2.67
2022-09-15T10:00:35.818Z,2.58
2022-09-15T10:03:14.269Z,2.75
2022-09-15T10:05:38.120Z,3.20
2022-09-15T10:08:04.025Z,3.17
2022-09-15T10:10:32.293Z,3.00
2022-09-15T10:13:08.305Z,3.20
2022-09-15T10:15:34.115Z,3.42
2022-09-15T10:18:07.271Z,4.07
2022-09-15T10:20:35.462Z,3.58
2022-09-15T10:23:09.258Z,3.33
2022-09-15T10:25:58.134Z,3.88
2022-09-15T10:28:25.717Z,4.07
2022-09-15T10:31:06.651Z,3.47
2022-09-15T10:33:35.034Z,4.28
2022-09-15T10:36:05.832Z,4.13
2022-09-15T10:38:40.451Z,4.03
2022-09-15T10:41:23.434Z,3.22
2022-09-15T10:44:20.356Z,3.88
2022-09-15T10:46:56.800Z,3.65
2022-09-15T10:49:37.601Z,3.53
2022-09-15T10:52:13.557Z,3.70
2022-09-15T10:55:31.894Z,3.88
2022-09-15T10:58:22.511Z,3.15
2022-09-15T11:00:54.611Z,3.08
2022-09-15T11:03:54.368Z,2.65
2022-09-15T11:06:25.254Z,2.70
2022-09-15T11:09:15.108Z,2.03
2022-09-15T11:11:54.642Z,1.67
2022-09-15T11:14:41.673Z,2.15
2022-09-15T11:17:24.512Z,1.98
2022-09-15T11:20:14.143Z,2.05
2022-09-15T11:22:49.313Z,1.98
2022-09-15T11:25:19.134Z,2.03
2022-09-15T11:27:48.109Z,2.17
2022-09-15T11:30:20.070Z,2.15
2022-09-15T11:32:52.897Z,1.90
2022-09-15T11:35:38.241Z,2.35
2022-09-15T11:38:18.207Z,2.00
2022-09-15T11:40:48.667Z,2.10
2022-09-15T11:43:20.097Z,1.80
2022-09-15T11:45:50.084Z,1.90
2022-09-15T11:48:20.677Z,1.80
2022-09-15T11:50:48.637Z,1.95
2022-09-15T11:53:23.065Z,1.63
2022-09-15T11:55:54.824Z,1.90
2022-09-15T11:58:30.754Z,1.52
2022-09-15T12:00:58.020Z,1.50
2022-09-15T12:03:31.210Z,1.80
2022-09-15T12:06:00.521Z,1.92
2022-09-15T12:08:32.124Z,2.03
2022-09-15T12:10:58.205Z,1.67
2022-09-15T12:13:25.121Z,2.10
2022-09-15T12:15:52.249Z,2.50
2022-09-15T12:18:38.407Z,2.35
2022-09-15T12:21:16.115Z,2.33
2022-09-15T12:23:47.120Z,2.40
2022-09-15T12:26:18.823Z,2.25
2022-09-15T12:28:56.178Z,2.60
2022-09-15T12:31:41.138Z,2.10
2022-09-15T12:34:30.339Z,2.40
2022-09-15T12:39:39.416Z,2.85
2022-09-15T12:42:22.705Z,2.10
2022-09-15T12:44:51.290Z,2.92
2022-09-15T12:47:28.571Z,2.45
2022-09-15T12:49:54.468Z,2.90
2022-09-15T12:52:21.886Z,2.80
2022-09-15T12:54:55.775Z,3.00
2022-09-15T12:57:26.380Z,2.50
2022-09-15T12:59:49.983Z,2.38
2022-09-15T13:02:47.015Z,2.97
2022-09-15T13:05:18.025Z,2.95
2022-09-15T13:07:58.287Z,2.78
2022-09-15T13:10:45.156Z,3.08
2022-09-15T13:13:33.330Z,3.00
2022-09-15T13:15:58.689Z,3.50
2022-09-15T13:18:27.737Z,3.78
2022-09-15T13:21:00.380Z,3.10
2022-09-15T13:23:28.225Z,4.13
2022-09-15T13:25:54.311Z,4.40
2022-09-15T13:28:18.970Z,4.90
2022-09-15T13:30:56.810Z,4.50
2022-09-15T13:40:00.642Z,3.40
2022-09-15T13:42:49.322Z,2.80
2022-09-15T13:45:45.537Z,3.10
2022-09-15T13:48:46.045Z,2.90
2022-09-15T13:51:20.780Z,2.42
2022-09-15T13:53:51.402Z,2.42
2022-09-15T13:56:24.942Z,1.90
2022-09-15T13:59:12.105Z,1.50
2022-09-15T14:01:38.796Z,1.67
2022-09-15T14:04:06.748Z,1.33
2022-09-15T14:06:37.232Z,1.50
2022-09-15T14:09:04.165Z,1.60
2022-09-15T14:11:32.233Z,1.30
2022-09-15T14:13:58.090Z,1.33
2022-09-15T14:16:26.027Z,1.50
2022-09-15T14:18:49.586Z,1.60
2022-09-15T14:21:20.362Z,1.50
2022-09-15T14:23:48.249Z,1.40
2022-09-15T14:26:22.149Z,2.00
2022-09-15T14:28:53.649Z,2.03
2022-09-15T14:31:17.361Z,1.50
2022-09-15T14:33:42.699Z,1.55
2022-09-15T14:36:22.367Z,1.80
2022-09-15T14:38:45.900Z,1.50
2022-09-15T14:41:20.439Z,1.77
2022-09-15T14:43:47.233Z,1.88
2022-09-15T14:46:20.793Z,1.45
2022-09-15T14:48:44.557Z,1.48
2022-09-15T14:51:20.348Z,1.42
2022-09-15T14:53:46.794Z,1.83
2022-09-15T14:56:16.006Z,1.52
2022-09-15T14:58:44.519Z,1.45
2022-09-15T15:01:17.697Z,1.50
2022-09-15T15:03:47.536Z,1.70
2022-09-15T15:06:28.920Z,1.50
2022-09-15T15:08:58.316Z,1.50
2022-09-15T15:11:22.374Z,1.40
2022-09-15T15:13:52.187Z,1.60
2022-09-15T15:16:26.121Z,1.33
2022-09-15T15:18:51.387Z,1.40
2022-09-15T15:21:40.587Z,1.58
2022-09-15T15:24:20.383Z,1.40
2022-09-15T15:26:46.326Z,1.40
2022-09-15T15:29:40.832Z,1.52
2022-09-15T15:32:11.262Z,2.00
2022-09-15T15:34:35.292Z,1.85
2022-09-15T15:37:04.091Z,1.35
2022-09-15T15:39:27.581Z,1.85
2022-09-15T15:42:03.086Z,1.65
2022-09-15T15:44:29.277Z,1.63
2022-09-15T15:46:55.730Z,2.25
2022-09-15T15:49:27.461Z,1.80
2022-09-15T15:51:50.969Z,1.83
2022-09-15T15:54:15.302Z,1.55
2022-09-15T15:56:38.780Z,2.00
2022-09-15T15:59:02.307Z,1.70
2022-09-15T16:01:26.545Z,2.25
2022-09-15T16:03:50.072Z,2.05
2022-09-15T16:06:15.933Z,2.03
2022-09-15T16:08:43.975Z,2.15
2022-09-15T16:11:12.000Z,2.30
2022-09-15T16:13:35.593Z,3.75
2022-09-15T16:16:01.324Z,3.88
2022-09-15T16:18:25.426Z,6.35
2022-09-15T16:20:48.882Z,4.32
2022-09-15T16:23:18.503Z,2.83
2022-09-15T16:25:49.788Z,2.78
2022-09-15T16:28:13.294Z,1.75
2022-09-15T16:30:37.496Z,1.40
2022-09-15T16:33:02.184Z,1.50
2022-09-15T16:35:39.393Z,1.15
2022-09-15T16:38:02.889Z,1.40
2022-09-15T16:40:27.796Z,1.23
2022-09-15T16:42:53.230Z,1.27
2022-09-15T16:45:27.374Z,1.30
2022-09-15T16:47:50.941Z,1.08
2022-09-15T16:50:14.485Z,1.42
2022-09-15T16:52:39.352Z,1.08
2022-09-15T16:55:02.906Z,1.08
2022-09-15T16:57:27.778Z,1.17
2022-09-15T16:59:51.448Z,1.38
2022-09-15T17:02:15.471Z,1.20
2022-09-15T17:04:39.017Z,1.13
2022-09-15T17:07:02.510Z,1.05
2022-09-15T17:09:26.041Z,0.90
2022-09-15T17:11:49.906Z,1.15
2022-09-15T17:14:18.567Z,1.08
2022-09-15T17:16:42.106Z,1.10
2022-09-15T17:19:05.770Z,1.20
2022-09-15T17:21:29.747Z,1.30
2022-09-15T17:23:54.511Z,0.90
2022-09-15T17:26:24.681Z,1.02
2022-09-15T17:28:50.500Z,1.50
2022-09-15T17:31:23.669Z,1.30
2022-09-15T17:33:48.535Z,1.50
2022-09-15T17:36:12.761Z,1.70
2022-09-15T17:38:36.638Z,1.73
2022-09-15T17:41:00.286Z,1.40
2022-09-15T17:43:27.482Z,1.63
2022-09-15T17:45:53.650Z,1.58
2022-09-15T17:48:20.249Z,1.65
2022-09-15T17:50:45.386Z,1.30
2022-09-15T17:53:15.463Z,1.50
2022-09-15T17:55:42.111Z,1.30
2022-09-15T17:58:09.142Z,1.60
2022-09-15T18:00:35.723Z,1.38
2022-09-15T18:03:03.299Z,1.35
2022-09-15T18:05:32.460Z,1.38
2022-09-15T18:07:57.938Z,1.20
2022-09-15T18:10:21.634Z,1.40
2022-09-15T18:12:48.413Z,1.50
2022-09-15T18:15:17.385Z,1.42
2022-09-15T18:17:40.866Z,1.20
2022-09-15T18:20:05.532Z,1.55
2022-09-15T18:22:48.227Z,1.60
2022-09-15T18:25:36.346Z,1.15
2022-09-15T18:28:25.604Z,1.38
2022-09-15T18:31:00.503Z,1.50
2022-09-15T18:33:32.848Z,1.50
2022-09-15T18:36:11.365Z,1.38
2022-09-15T18:38:36.676Z,1.60
2022-09-15T18:41:01.419Z,1.10
2022-09-15T18:43:28.256Z,1.35
2022-09-15T18:45:53.231Z,1.80
2022-09-15T18:48:17.524Z,1.67
2022-09-15T18:50:41.512Z,1.75
2022-09-15T18:53:05.341Z,1.35
2022-09-15T18:55:30.317Z,1.35
2022-09-15T18:57:54.064Z,1.38
2022-09-15T19:00:21.007Z,1.60
2022-09-15T19:02:45.118Z,1.50
2022-09-15T19:05:11.484Z,1.65
2022-09-15T19:07:35.216Z,1.70
2022-09-15T19:09:59.035Z,1.55
2022-09-15T19:12:24.026Z,1.45
2022-09-15T19:14:48.419Z,1.45
2022-09-15T19:17:12.960Z,1.48
2022-09-15T19:19:36.445Z,1.80
2022-09-15T19:21:59.873Z,1.65
2022-09-15T19:24:23.516Z,1.73
2022-09-15T19:26:47.811Z,2.13
2022-09-15T19:29:12.730Z,2.33
2022-09-15T19:31:41.839Z,1.48
2022-09-15T19:34:06.191Z,1.70
2022-09-15T19:36:29.679Z,1.80
2022-09-15T19:38:53.308Z,1.77
2022-09-15T19:41:18.880Z,1.55
2022-09-15T19:43:43.239Z,2.00
2022-09-15T19:46:13.895Z,1.45
2022-09-15T19:48:40.862Z,1.77
2022-09-15T19:51:08.281Z,2.15
2022-09-15T19:53:31.744Z,2.10
2022-09-15T19:55:55.285Z,2.00
2022-09-15T19:58:19.613Z,2.60
2022-09-15T20:00:43.152Z,2.15
2022-09-15T20:03:08.002Z,1.77
2022-09-15T20:05:31.439Z,2.00
2022-09-15T20:07:54.943Z,1.70
2022-09-15T20:10:18.516Z,2.58
2022-09-15T20:12:42.016Z,1.58
2022-09-15T20:15:07.045Z,1.65
2022-09-15T20:17:30.614Z,1.60
2022-09-15T20:19:55.523Z,1.67
2022-09-15T20:22:19.105Z,1.45
2022-09-15T20:24:42.617Z,1.60
2022-09-15T20:27:07.013Z,1.45
2022-09-15T20:29:30.431Z,1.58
2022-09-15T20:31:53.931Z,1.90
2022-09-15T20:34:18.661Z,1.30
2022-09-15T20:36:44.519Z,1.75
2022-09-15T20:39:12.803Z,1.92
2022-09-15T20:41:37.014Z,1.60
2022-09-15T20:44:00.898Z,1.70
2022-09-15T20:46:25.485Z,1.70
2022-09-15T20:48:49.751Z,1.25
2022-09-15T20:51:15.914Z,1.70
2022-09-15T20:53:41.759Z,1.90
2022-09-15T20:56:05.616Z,1.42
2022-09-15T20:58:29.334Z,1.67
2022-09-15T21:00:53.616Z,1.58
2022-09-15T21:03:17.323Z,2.00
2022-09-15T21:05:41.028Z,1.80
2022-09-15T21:08:05.140Z,2.47
2022-09-15T21:10:30.582Z,1.98
2022-09-15T21:12:54.891Z,1.73
2022-09-15T21:15:18.319Z,1.40
2022-09-15T21:17:41.823Z,1.60
2022-09-15T21:20:05.994Z,1.90
2022-09-15T21:22:29.820Z,2.38
2022-09-15T21:24:53.246Z,1.55
2022-09-15T21:27:27.874Z,1.77
2022-09-15T21:29:51.335Z,2.10
2022-09-15T21:32:14.821Z,3.85
2022-09-15T21:34:38.352Z,3.80
2022-09-15T21:37:01.837Z,4.28
2022-09-15T21:39:25.445Z,3.42
2022-09-15T21:41:49.021Z,3.08
2022-09-15T21:44:14.326Z,2.67
2022-09-15T21:46:37.917Z,3.47
2022-09-15T21:49:02.050Z,3.13
2022-09-15T21:51:27.136Z,3.10
2022-09-15T21:53:52.244Z,2.80
2022-09-15T21:56:15.770Z,2.78
2022-09-15T21:58:42.893Z,2.13
2022-09-15T22:01:13.885Z,2.70
2022-09-15T22:03:41.125Z,2.40
2022-09-15T22:06:05.018Z,2.53
2022-09-15T22:08:29.190Z,2.70
2022-09-15T22:11:00.882Z,3.45
2022-09-15T22:13:24.334Z,3.38
2022-09-15T22:15:47.814Z,3.65
2022-09-15T22:18:12.728Z,2.85
2022-09-15T22:20:36.212Z,2.97
2022-09-15T22:23:01.814Z,2.35
2022-09-15T22:25:25.610Z,1.75
2022-09-15T22:27:49.377Z,2.00
2022-09-15T22:30:14.285Z,2.35
2022-09-15T22:32:37.801Z,1.38
2022-09-15T22:35:02.835Z,1.30
2022-09-15T22:37:27.652Z,1.58
2022-09-15T22:39:58.896Z,1.40
2022-09-15T22:42:22.926Z,1.40
2022-09-15T22:44:47.073Z,1.58
2022-09-15T22:47:11.127Z,1.40
2022-09-15T22:49:34.538Z,1.77
2022-09-15T22:51:59.378Z,1.60
2022-09-15T22:54:22.957Z,1.70
2022-09-15T22:56:47.768Z,1.95
2022-09-15T22:59:11.284Z,2.00
2022-09-15T23:01:34.723Z,2.03
2022-09-15T23:04:00.140Z,1.50
2022-09-15T23:06:24.192Z,1.80
2022-09-15T23:08:52.891Z,1.50
2022-09-15T23:11:17.147Z,1.83
2022-09-15T23:13:41.049Z,1.60
2022-09-15T23:16:05.855Z,1.55
2022-09-15T23:18:29.727Z,1.45
2022-09-15T23:20:58.831Z,1.48
2022-09-15T23:23:22.548Z,2.08
2022-09-15T23:25:48.033Z,1.38
2022-09-15T23:28:11.625Z,1.73
2022-09-15T23:30:35.685Z,1.50
2022-09-15T23:32:59.079Z,1.40
2022-09-15T23:35:22.661Z,2.05
2022-09-15T23:37:46.131Z,1.30
2022-09-15T23:40:10.819Z,1.55
2022-09-15T23:42:35.746Z,1.50
2022-09-15T23:44:59.763Z,1.38
2022-09-15T23:47:23.234Z,1.92
2022-09-15T23:49:46.627Z,1.80
2022-09-15T23:52:10.161Z,1.92
2022-09-15T23:54:34.115Z,1.70
2022-09-15T23:56:57.844Z,1.60
2022-09-15T23:59:23.373Z,1.63
